sensor_id;sensor_type;location;lat;lon;timestamp;temperature;humidity
41939;DHT22;23057;48.554;14.454;2023-05-07T00:01:23;9.60;99.90
41939;DHT22;23057;48.554;14.454;2023-05-07T00:03:55;9.60;99.90
41939;DHT22;23057;48.554;14.454;2023-05-07T00:06:25;9.50;99.90
41939;DHT22;23057;48.554;14.454;2023-05-07T00:08:59;9.50;99.90
41939;DHT22;23057;48.554;14.454;2023-05-07T00:11:31;9.40;99.90
41939;DHT22;23057;48.554;14.454;2023-05-07T00:14:03;9.40;99.90
41939;DHT22;23057;48.554;14.454;2023-05-07T00:16:34;9.30;99.90
41939;DHT22;23057;48.554;14.454;2023-05-07T00:19:04;9.20;99.90
41939;DHT22;23057;48.554;14.454;2023-05-07T00:21:35;9.20;99.90
41939;DHT22;23057;48.554;14.454;2023-05-07T00:24:06;9.10;99.90
41939;DHT22;23057;48.554;14.454;2023-05-07T00:26:37;9.10;99.90
41939;DHT22;23057;48.554;14.454;2023-05-07T00:29:07;9.10;99.90
41939;DHT22;23057;48.554;14.454;2023-05-07T00:31:38;9.20;99.90
41939;DHT22;23057;48.554;14.454;2023-05-07T00:34:09;9.20;99.90
41939;DHT22;23057;48.554;14.454;2023-05-07T00:36:40;9.20;99.90
41939;DHT22;23057;48.554;14.454;2023-05-07T00:39:10;9.10;99.90
41939;DHT22;23057;48.554;14.454;2023-05-07T00:41:41;9.00;99.90
41939;DHT22;23057;48.554;14.454;2023-05-07T00:44:12;9.00;99.90
41939;DHT22;23057;48.554;14.454;2023-05-07T00:46:44;8.90;99.90
41939;DHT22;23057;48.554;14.454;2023-05-07T00:49:15;9.00;99.90
41939;DHT22;23057;48.554;14.454;2023-05-07T00:51:46;9.00;99.90
41939;DHT22;23057;48.554;14.454;2023-05-07T00:54:18;9.20;99.90
41939;DHT22;23057;48.554;14.454;2023-05-07T00:56:49;9.10;99.90
41939;DHT22;23057;48.554;14.454;2023-05-07T00:59:21;9.10;99.90
41939;DHT22;23057;48.554;14.454;2023-05-07T01:01:52;9.20;99.90
41939;DHT22;23057;48.554;14.454;2023-05-07T01:04:23;9.20;99.90
41939;DHT22;23057;48.554;14.454;2023-05-07T01:06:54;9.40;99.90
41939;DHT22;23057;48.554;14.454;2023-05-07T01:09:27;9.50;99.90
41939;DHT22;23057;48.554;14.454;2023-05-07T01:11:59;9.60;99.90
41939;DHT22;23057;48.554;14.454;2023-05-07T01:17:10;9.70;99.90
41939;DHT22;23057;48.554;14.454;2023-05-07T01:19:41;9.70;99.90
41939;DHT22;23057;48.554;14.454;2023-05-07T01:22:12;9.60;99.90
41939;DHT22;23057;48.554;14.454;2023-05-07T01:24:46;9.70;99.90
41939;DHT22;23057;48.554;14.454;2023-05-07T01:27:18;9.80;99.90
41939;DHT22;23057;48.554;14.454;2023-05-07T01:29:49;9.90;99.90
41939;DHT22;23057;48.554;14.454;2023-05-07T01:32:21;9.90;99.90
41939;DHT22;23057;48.554;14.454;2023-05-07T01:35:19;10.00;99.90
41939;DHT22;23057;48.554;14.454;2023-05-07T01:37:53;10.00;99.90
41939;DHT22;23057;48.554;14.454;2023-05-07T01:40:25;10.00;99.90
41939;DHT22;23057;48.554;14.454;2023-05-07T01:42:57;10.00;99.90
41939;DHT22;23057;48.554;14.454;2023-05-07T01:45:29;10.00;99.90
41939;DHT22;23057;48.554;14.454;2023-05-07T01:48:02;10.00;99.90
41939;DHT22;23057;48.554;14.454;2023-05-07T01:50:33;10.00;99.90
41939;DHT22;23057;48.554;14.454;2023-05-07T01:53:06;10.00;99.90
41939;DHT22;23057;48.554;14.454;2023-05-07T01:55:36;10.10;99.90
41939;DHT22;23057;48.554;14.454;2023-05-07T01:58:07;10.00;99.90
41939;DHT22;23057;48.554;14.454;2023-05-07T02:00:39;10.10;99.90
41939;DHT22;23057;48.554;14.454;2023-05-07T02:03:11;10.00;99.90
41939;DHT22;23057;48.554;14.454;2023-05-07T02:05:41;10.10;99.90
41939;DHT22;23057;48.554;14.454;2023-05-07T02:08:12;10.00;99.90
41939;DHT22;23057;48.554;14.454;2023-05-07T02:10:43;10.00;99.90
41939;DHT22;23057;48.554;14.454;2023-05-07T02:13:13;10.10;99.90
41939;DHT22;23057;48.554;14.454;2023-05-07T02:15:44;10.10;99.90
41939;DHT22;23057;48.554;14.454;2023-05-07T02:18:19;10.10;99.90
41939;DHT22;23057;48.554;14.454;2023-05-07T02:20:50;10.10;99.90
41939;DHT22;23057;48.554;14.454;2023-05-07T02:23:20;10.00;99.90
41939;DHT22;23057;48.554;14.454;2023-05-07T02:25:51;10.10;99.90
41939;DHT22;23057;48.554;14.454;2023-05-07T02:28:22;10.10;99.90
41939;DHT22;23057;48.554;14.454;2023-05-07T02:30:53;10.10;99.90
41939;DHT22;23057;48.554;14.454;2023-05-07T02:33:23;10.10;99.90
41939;DHT22;23057;48.554;14.454;2023-05-07T02:35:55;10.10;99.90
41939;DHT22;23057;48.554;14.454;2023-05-07T02:38:25;10.10;99.90
41939;DHT22;23057;48.554;14.454;2023-05-07T02:40:56;10.10;99.90
41939;DHT22;23057;48.554;14.454;2023-05-07T02:43:27;10.20;99.90
41939;DHT22;23057;48.554;14.454;2023-05-07T02:46:04;10.10;99.90
41939;DHT22;23057;48.554;14.454;2023-05-07T02:48:37;10.10;99.90
41939;DHT22;23057;48.554;14.454;2023-05-07T02:51:08;10.10;99.90
41939;DHT22;23057;48.554;14.454;2023-05-07T02:53:38;10.00;99.90
41939;DHT22;23057;48.554;14.454;2023-05-07T02:56:09;10.00;99.90
41939;DHT22;23057;48.554;14.454;2023-05-07T02:58:40;10.00;99.90
41939;DHT22;23057;48.554;14.454;2023-05-07T03:01:12;10.00;99.90
41939;DHT22;23057;48.554;14.454;2023-05-07T03:03:44;10.00;99.90
41939;DHT22;23057;48.554;14.454;2023-05-07T03:06:14;10.00;99.90
41939;DHT22;23057;48.554;14.454;2023-05-07T03:08:45;10.00;99.90
41939;DHT22;23057;48.554;14.454;2023-05-07T03:11:16;10.00;99.90
41939;DHT22;23057;48.554;14.454;2023-05-07T03:13:47;10.00;99.90
41939;DHT22;23057;48.554;14.454;2023-05-07T03:16:19;10.00;99.90
41939;DHT22;23057;48.554;14.454;2023-05-07T03:18:50;9.90;99.90
41939;DHT22;23057;48.554;14.454;2023-05-07T03:21:20;10.00;99.90
41939;DHT22;23057;48.554;14.454;2023-05-07T03:23:51;10.00;99.90
41939;DHT22;23057;48.554;14.454;2023-05-07T03:26:22;9.90;99.90
41939;DHT22;23057;48.554;14.454;2023-05-07T03:28:53;9.90;99.90
41939;DHT22;23057;48.554;14.454;2023-05-07T03:31:23;9.90;99.90
41939;DHT22;23057;48.554;14.454;2023-05-07T03:33:55;9.90;99.90
41939;DHT22;23057;48.554;14.454;2023-05-07T03:36:27;9.90;99.90
41939;DHT22;23057;48.554;14.454;2023-05-07T03:38:58;9.90;99.90
41939;DHT22;23057;48.554;14.454;2023-05-07T03:41:29;9.90;99.90
41939;DHT22;23057;48.554;14.454;2023-05-07T03:44:00;9.90;99.90
41939;DHT22;23057;48.554;14.454;2023-05-07T03:46:31;9.90;99.90
41939;DHT22;23057;48.554;14.454;2023-05-07T03:49:03;10.00;99.90
41939;DHT22;23057;48.554;14.454;2023-05-07T03:51:33;10.00;99.90
41939;DHT22;23057;48.554;14.454;2023-05-07T03:54:06;10.00;99.90
41939;DHT22;23057;48.554;14.454;2023-05-07T03:56:37;9.90;99.90
41939;DHT22;23057;48.554;14.454;2023-05-07T03:59:08;9.90;99.90
41939;DHT22;23057;48.554;14.454;2023-05-07T04:01:39;10.00;99.90
41939;DHT22;23057;48.554;14.454;2023-05-07T04:04:10;10.00;99.90
41939;DHT22;23057;48.554;14.454;2023-05-07T04:06:40;10.00;99.90
41939;DHT22;23057;48.554;14.454;2023-05-07T04:09:12;9.90;99.90
41939;DHT22;23057;48.554;14.454;2023-05-07T04:11:42;10.00;99.90
41939;DHT22;23057;48.554;14.454;2023-05-07T04:14:13;9.90;99.90
41939;DHT22;23057;48.554;14.454;2023-05-07T04:16:44;9.90;99.90
41939;DHT22;23057;48.554;14.454;2023-05-07T04:19:14;9.80;99.90
41939;DHT22;23057;48.554;14.454;2023-05-07T04:21:45;9.70;99.90
41939;DHT22;23057;48.554;14.454;2023-05-07T04:24:16;9.70;99.90
41939;DHT22;23057;48.554;14.454;2023-05-07T04:26:47;9.70;99.90
41939;DHT22;23057;48.554;14.454;2023-05-07T04:29:17;9.70;99.90
41939;DHT22;23057;48.554;14.454;2023-05-07T04:31:48;9.70;99.90
41939;DHT22;23057;48.554;14.454;2023-05-07T04:34:19;9.80;99.90
41939;DHT22;23057;48.554;14.454;2023-05-07T04:36:51;9.80;99.90
41939;DHT22;23057;48.554;14.454;2023-05-07T04:39:22;10.00;99.90
41939;DHT22;23057;48.554;14.454;2023-05-07T04:41:52;10.00;99.90
41939;DHT22;23057;48.554;14.454;2023-05-07T04:44:23;10.00;99.90
41939;DHT22;23057;48.554;14.454;2023-05-07T04:46:55;9.80;99.90
41939;DHT22;23057;48.554;14.454;2023-05-07T04:49:25;9.80;99.90
41939;DHT22;23057;48.554;14.454;2023-05-07T04:51:56;9.80;99.90
41939;DHT22;23057;48.554;14.454;2023-05-07T04:54:27;9.60;99.90
41939;DHT22;23057;48.554;14.454;2023-05-07T04:56:58;9.60;99.90
41939;DHT22;23057;48.554;14.454;2023-05-07T04:59:28;9.60;99.90
41939;DHT22;23057;48.554;14.454;2023-05-07T05:01:59;9.70;99.90
41939;DHT22;23057;48.554;14.454;2023-05-07T05:04:30;9.60;99.90
41939;DHT22;23057;48.554;14.454;2023-05-07T05:07:01;9.70;99.90
41939;DHT22;23057;48.554;14.454;2023-05-07T05:09:33;9.70;99.90
41939;DHT22;23057;48.554;14.454;2023-05-07T05:12:04;9.80;99.90
41939;DHT22;23057;48.554;14.454;2023-05-07T05:14:37;9.80;99.90
41939;DHT22;23057;48.554;14.454;2023-05-07T05:17:08;9.90;99.90
41939;DHT22;23057;48.554;14.454;2023-05-07T05:19:38;9.90;99.90
41939;DHT22;23057;48.554;14.454;2023-05-07T05:22:09;10.00;99.90
41939;DHT22;23057;48.554;14.454;2023-05-07T05:24:40;10.20;99.90
41939;DHT22;23057;48.554;14.454;2023-05-07T05:27:10;10.20;99.90
41939;DHT22;23057;48.554;14.454;2023-05-07T05:29:41;10.10;99.90
41939;DHT22;23057;48.554;14.454;2023-05-07T05:32:12;10.30;99.90
41939;DHT22;23057;48.554;14.454;2023-05-07T05:34:45;10.70;99.90
41939;DHT22;23057;48.554;14.454;2023-05-07T05:37:16;11.00;99.90
41939;DHT22;23057;48.554;14.454;2023-05-07T05:39:47;11.50;99.90
41939;DHT22;23057;48.554;14.454;2023-05-07T05:42:18;11.90;99.90
41939;DHT22;23057;48.554;14.454;2023-05-07T05:44:48;11.70;99.90
41939;DHT22;23057;48.554;14.454;2023-05-07T05:47:19;11.80;99.90
41939;DHT22;23057;48.554;14.454;2023-05-07T05:49:50;11.80;99.90
41939;DHT22;23057;48.554;14.454;2023-05-07T05:52:21;12.40;99.90
41939;DHT22;23057;48.554;14.454;2023-05-07T05:54:53;12.80;99.90
41939;DHT22;23057;48.554;14.454;2023-05-07T05:57:25;13.70;99.90
41939;DHT22;23057;48.554;14.454;2023-05-07T05:59:55;14.50;99.90
41939;DHT22;23057;48.554;14.454;2023-05-07T06:02:26;14.70;99.90
41939;DHT22;23057;48.554;14.454;2023-05-07T06:04:57;15.30;99.90
41939;DHT22;23057;48.554;14.454;2023-05-07T06:07:28;15.80;99.90
41939;DHT22;23057;48.554;14.454;2023-05-07T06:09:58;16.20;1.00
41939;DHT22;23057;48.554;14.454;2023-05-07T06:12:29;15.90;9.40
41939;DHT22;23057;48.554;14.454;2023-05-07T06:15:00;16.30;99.90
41939;DHT22;23057;48.554;14.454;2023-05-07T06:17:31;17.00;99.90
41939;DHT22;23057;48.554;14.454;2023-05-07T06:20:02;17.30;99.90
41939;DHT22;23057;48.554;14.454;2023-05-07T06:22:33;17.50;47.70
41939;DHT22;23057;48.554;14.454;2023-05-07T06:25:04;17.20;18.90
41939;DHT22;23057;48.554;14.454;2023-05-07T06:27:36;16.90;42.30
41939;DHT22;23057;48.554;14.454;2023-05-07T06:30:07;17.50;42.30
41939;DHT22;23057;48.554;14.454;2023-05-07T06:32:39;17.50;1.00
41939;DHT22;23057;48.554;14.454;2023-05-07T06:35:11;16.90;1.00
41939;DHT22;23057;48.554;14.454;2023-05-07T06:37:42;16.90;54.70
41939;DHT22;23057;48.554;14.454;2023-05-07T06:40:12;16.60;1.00
41939;DHT22;23057;48.554;14.454;2023-05-07T06:42:43;15.60;74.00
41939;DHT22;23057;48.554;14.454;2023-05-07T06:45:14;16.30;99.90
41939;DHT22;23057;48.554;14.454;2023-05-07T06:47:45;17.30;10.30
41939;DHT22;23057;48.554;14.454;2023-05-07T06:50:18;16.90;6.60
41939;DHT22;23057;48.554;14.454;2023-05-07T06:52:48;16.00;20.40
41939;DHT22;23057;48.554;14.454;2023-05-07T06:55:19;15.40;99.90
41939;DHT22;23057;48.554;14.454;2023-05-07T06:57:50;15.60;99.90
41939;DHT22;23057;48.554;14.454;2023-05-07T07:00:21;15.40;99.90
41939;DHT22;23057;48.554;14.454;2023-05-07T07:02:52;15.10;99.90
41939;DHT22;23057;48.554;14.454;2023-05-07T07:05:24;15.00;99.90
41939;DHT22;23057;48.554;14.454;2023-05-07T07:07:55;15.40;99.90
41939;DHT22;23057;48.554;14.454;2023-05-07T07:10:26;15.00;99.90
41939;DHT22;23057;48.554;14.454;2023-05-07T07:12:57;14.80;99.90
41939;DHT22;23057;48.554;14.454;2023-05-07T07:15:27;15.20;99.90
41939;DHT22;23057;48.554;14.454;2023-05-07T07:17:58;15.20;99.90
41939;DHT22;23057;48.554;14.454;2023-05-07T07:20:29;15.10;1.00
41939;DHT22;23057;48.554;14.454;2023-05-07T07:23:00;15.30;1.00
41939;DHT22;23057;48.554;14.454;2023-05-07T07:25:31;14.90;1.00
41939;DHT22;23057;48.554;14.454;2023-05-07T07:28:02;14.30;1.00
41939;DHT22;23057;48.554;14.454;2023-05-07T07:30:32;14.40;99.90
41939;DHT22;23057;48.554;14.454;2023-05-07T07:33:03;14.60;9.10
41939;DHT22;23057;48.554;14.454;2023-05-07T07:35:35;14.30;38.40
41939;DHT22;23057;48.554;14.454;2023-05-07T07:38:06;14.90;58.20
41939;DHT22;23057;48.554;14.454;2023-05-07T07:40:36;15.00;42.60
41939;DHT22;23057;48.554;14.454;2023-05-07T07:43:07;15.60;1.00
41939;DHT22;23057;48.554;14.454;2023-05-07T07:45:38;15.80;1.00
41939;DHT22;23057;48.554;14.454;2023-05-07T07:48:09;16.10;99.90
41939;DHT22;23057;48.554;14.454;2023-05-07T07:50:40;16.40;99.90
41939;DHT22;23057;48.554;14.454;2023-05-07T07:53:11;15.60;99.90
41939;DHT22;23057;48.554;14.454;2023-05-07T07:55:42;15.90;99.90
41939;DHT22;23057;48.554;14.454;2023-05-07T07:58:12;16.00;99.90
41939;DHT22;23057;48.554;14.454;2023-05-07T08:00:43;15.70;99.90
41939;DHT22;23057;48.554;14.454;2023-05-07T08:03:14;15.30;99.90
41939;DHT22;23057;48.554;14.454;2023-05-07T08:05:46;15.40;1.00
41939;DHT22;23057;48.554;14.454;2023-05-07T08:08:17;15.70;99.90
41939;DHT22;23057;48.554;14.454;2023-05-07T08:10:48;15.30;99.90
41939;DHT22;23057;48.554;14.454;2023-05-07T08:13:20;14.80;99.90
41939;DHT22;23057;48.554;14.454;2023-05-07T08:15:51;15.00;99.90
41939;DHT22;23057;48.554;14.454;2023-05-07T08:18:22;14.70;99.90
41939;DHT22;23057;48.554;14.454;2023-05-07T08:20:54;15.30;1.00
41939;DHT22;23057;48.554;14.454;2023-05-07T08:23:25;15.70;99.90
41939;DHT22;23057;48.554;14.454;2023-05-07T08:25:56;15.30;99.90
41939;DHT22;23057;48.554;14.454;2023-05-07T08:28:27;16.10;99.90
41939;DHT22;23057;48.554;14.454;2023-05-07T08:30:57;15.90;99.90
41939;DHT22;23057;48.554;14.454;2023-05-07T08:33:30;15.50;99.90
41939;DHT22;23057;48.554;14.454;2023-05-07T08:36:01;15.60;99.90
41939;DHT22;23057;48.554;14.454;2023-05-07T08:38:32;15.40;99.90
41939;DHT22;23057;48.554;14.454;2023-05-07T08:41:03;15.00;99.90
41939;DHT22;23057;48.554;14.454;2023-05-07T08:43:34;14.70;1.00
41939;DHT22;23057;48.554;14.454;2023-05-07T08:46:10;14.80;1.00
41939;DHT22;23057;48.554;14.454;2023-05-07T08:48:50;14.40;1.00
41939;DHT22;23057;48.554;14.454;2023-05-07T08:51:22;14.10;34.30
41939;DHT22;23057;48.554;14.454;2023-05-07T08:53:52;13.70;99.90
41939;DHT22;23057;48.554;14.454;2023-05-07T08:56:23;13.70;99.90
41939;DHT22;23057;48.554;14.454;2023-05-07T08:58:55;13.90;99.90
41939;DHT22;23057;48.554;14.454;2023-05-07T09:01:28;14.20;99.90
41939;DHT22;23057;48.554;14.454;2023-05-07T09:03:59;14.90;99.90
41939;DHT22;23057;48.554;14.454;2023-05-07T09:06:30;15.30;1.00
41939;DHT22;23057;48.554;14.454;2023-05-07T09:09:01;14.90;1.00
41939;DHT22;23057;48.554;14.454;2023-05-07T09:11:35;14.30;1.00
41939;DHT22;23057;48.554;14.454;2023-05-07T09:14:06;14.00;25.80
41939;DHT22;23057;48.554;14.454;2023-05-07T09:16:36;14.00;77.20
41939;DHT22;23057;48.554;14.454;2023-05-07T09:19:07;15.00;99.90
41939;DHT22;23057;48.554;14.454;2023-05-07T09:21:38;16.50;1.00
41939;DHT22;23057;48.554;14.454;2023-05-07T09:24:10;17.80;99.90
41939;DHT22;23057;48.554;14.454;2023-05-07T09:26:40;16.80;99.90
41939;DHT22;23057;48.554;14.454;2023-05-07T09:29:11;17.30;99.90
41939;DHT22;23057;48.554;14.454;2023-05-07T09:31:42;18.10;99.90
41939;DHT22;23057;48.554;14.454;2023-05-07T09:34:13;17.80;50.40
41939;DHT22;23057;48.554;14.454;2023-05-07T09:36:44;16.90;99.90
41939;DHT22;23057;48.554;14.454;2023-05-07T09:39:15;16.50;99.90
41939;DHT22;23057;48.554;14.454;2023-05-07T09:41:46;16.70;99.90
41939;DHT22;23057;48.554;14.454;2023-05-07T09:44:20;15.70;99.90
41939;DHT22;23057;48.554;14.454;2023-05-07T09:46:53;16.30;99.90
41939;DHT22;23057;48.554;14.454;2023-05-07T09:49:26;16.00;99.90
41939;DHT22;23057;48.554;14.454;2023-05-07T09:52:00;15.10;99.90
41939;DHT22;23057;48.554;14.454;2023-05-07T09:54:33;15.60;1.00
41939;DHT22;23057;48.554;14.454;2023-05-07T09:57:09;15.80;99.90
41939;DHT22;23057;48.554;14.454;2023-05-07T09:59:44;16.40;99.90
41939;DHT22;23057;48.554;14.454;2023-05-07T10:02:17;16.10;99.90
41939;DHT22;23057;48.554;14.454;2023-05-07T10:04:50;15.90;99.90
41939;DHT22;23057;48.554;14.454;2023-05-07T10:07:22;16.40;99.90
41939;DHT22;23057;48.554;14.454;2023-05-07T10:09:54;16.70;99.90
41939;DHT22;23057;48.554;14.454;2023-05-07T10:12:25;16.20;99.90
41939;DHT22;23057;48.554;14.454;2023-05-07T10:14:58;15.70;99.90
41939;DHT22;23057;48.554;14.454;2023-05-07T10:17:29;16.50;99.90
41939;DHT22;23057;48.554;14.454;2023-05-07T10:20:00;16.30;99.90
41939;DHT22;23057;48.554;14.454;2023-05-07T10:22:33;16.40;99.90
41939;DHT22;23057;48.554;14.454;2023-05-07T10:25:43;16.50;99.90
41939;DHT22;23057;48.554;14.454;2023-05-07T10:28:08;16.50;99.90
41939;DHT22;23057;48.554;14.454;2023-05-07T10:30:55;15.40;99.90
41939;DHT22;23057;48.554;14.454;2023-05-07T10:33:42;15.00;99.90
41939;DHT22;23057;48.554;14.454;2023-05-07T10:36:16;15.40;99.90
41939;DHT22;23057;48.554;14.454;2023-05-07T10:38:49;15.40;99.90
41939;DHT22;23057;48.554;14.454;2023-05-07T10:41:20;15.20;99.90
41939;DHT22;23057;48.554;14.454;2023-05-07T10:43:52;15.90;99.90
41939;DHT22;23057;48.554;14.454;2023-05-07T10:46:22;15.60;99.90
41939;DHT22;23057;48.554;14.454;2023-05-07T10:51:34;15.20;99.90
41939;DHT22;23057;48.554;14.454;2023-05-07T10:56:43;15.10;99.90
41939;DHT22;23057;48.554;14.454;2023-05-07T11:01:52;15.50;99.90
41939;DHT22;23057;48.554;14.454;2023-05-07T11:04:34;15.90;99.90
41939;DHT22;23057;48.554;14.454;2023-05-07T11:10:00;15.50;99.90
41939;DHT22;23057;48.554;14.454;2023-05-07T11:15:33;15.90;99.90
41939;DHT22;23057;48.554;14.454;2023-05-07T11:18:26;16.40;99.90
41939;DHT22;23057;48.554;14.454;2023-05-07T11:24:10;17.10;99.90
41939;DHT22;23057;48.554;14.454;2023-05-07T11:26:42;16.40;99.90
41939;DHT22;23057;48.554;14.454;2023-05-07T11:29:21;15.80;99.90
41939;DHT22;23057;48.554;14.454;2023-05-07T11:31:53;15.70;99.90
41939;DHT22;23057;48.554;14.454;2023-05-07T11:34:25;15.60;99.90
41939;DHT22;23057;48.554;14.454;2023-05-07T11:36:57;15.70;99.90
41939;DHT22;23057;48.554;14.454;2023-05-07T11:39:30;16.00;99.90
41939;DHT22;23057;48.554;14.454;2023-05-07T11:42:06;16.00;99.90
41939;DHT22;23057;48.554;14.454;2023-05-07T11:44:44;16.20;99.90
41939;DHT22;23057;48.554;14.454;2023-05-07T11:47:19;15.80;99.90
41939;DHT22;23057;48.554;14.454;2023-05-07T11:49:52;15.80;99.90
41939;DHT22;23057;48.554;14.454;2023-05-07T11:52:24;15.60;99.90
41939;DHT22;23057;48.554;14.454;2023-05-07T11:54:56;15.70;99.90
41939;DHT22;23057;48.554;14.454;2023-05-07T11:57:30;15.70;99.90
41939;DHT22;23057;48.554;14.454;2023-05-07T12:00:03;16.20;99.90
41939;DHT22;23057;48.554;14.454;2023-05-07T12:02:35;16.40;99.90
41939;DHT22;23057;48.554;14.454;2023-05-07T12:05:06;16.10;99.90
41939;DHT22;23057;48.554;14.454;2023-05-07T12:07:37;16.00;99.90
41939;DHT22;23057;48.554;14.454;2023-05-07T12:10:08;16.10;99.90
41939;DHT22;23057;48.554;14.454;2023-05-07T12:12:41;15.90;99.90
41939;DHT22;23057;48.554;14.454;2023-05-07T12:15:17;16.00;99.90
41939;DHT22;23057;48.554;14.454;2023-05-07T12:17:47;16.00;99.90
41939;DHT22;23057;48.554;14.454;2023-05-07T12:20:19;16.20;99.90
41939;DHT22;23057;48.554;14.454;2023-05-07T12:22:50;16.10;99.90
41939;DHT22;23057;48.554;14.454;2023-05-07T12:25:22;15.90;99.90
41939;DHT22;23057;48.554;14.454;2023-05-07T12:27:53;15.90;99.90
41939;DHT22;23057;48.554;14.454;2023-05-07T12:30:24;16.10;99.90
41939;DHT22;23057;48.554;14.454;2023-05-07T12:32:55;16.50;99.90
41939;DHT22;23057;48.554;14.454;2023-05-07T12:35:29;16.40;99.90
41939;DHT22;23057;48.554;14.454;2023-05-07T12:38:02;16.30;99.90
41939;DHT22;23057;48.554;14.454;2023-05-07T12:40:35;16.70;99.90
41939;DHT22;23057;48.554;14.454;2023-05-07T12:43:07;16.40;99.90
41939;DHT22;23057;48.554;14.454;2023-05-07T12:45:47;16.40;99.90
41939;DHT22;23057;48.554;14.454;2023-05-07T12:48:20;16.40;99.90
41939;DHT22;23057;48.554;14.454;2023-05-07T12:50:56;16.20;99.90
41939;DHT22;23057;48.554;14.454;2023-05-07T12:53:29;16.10;99.90
41939;DHT22;23057;48.554;14.454;2023-05-07T12:56:01;16.70;99.90
41939;DHT22;23057;48.554;14.454;2023-05-07T12:58:35;17.40;99.90
41939;DHT22;23057;48.554;14.454;2023-05-07T13:01:06;16.80;99.90
41939;DHT22;23057;48.554;14.454;2023-05-07T13:03:39;16.70;99.90
41939;DHT22;23057;48.554;14.454;2023-05-07T13:06:10;16.50;99.90
41939;DHT22;23057;48.554;14.454;2023-05-07T13:08:42;16.30;99.90
41939;DHT22;23057;48.554;14.454;2023-05-07T13:11:13;16.30;99.90
41939;DHT22;23057;48.554;14.454;2023-05-07T13:13:44;16.20;99.90
41939;DHT22;23057;48.554;14.454;2023-05-07T13:16:15;16.20;99.90
41939;DHT22;23057;48.554;14.454;2023-05-07T13:18:45;16.30;99.90
41939;DHT22;23057;48.554;14.454;2023-05-07T13:21:16;16.40;99.90
41939;DHT22;23057;48.554;14.454;2023-05-07T13:23:47;16.40;99.90
41939;DHT22;23057;48.554;14.454;2023-05-07T13:26:17;16.60;99.90
41939;DHT22;23057;48.554;14.454;2023-05-07T13:28:48;17.10;99.90
41939;DHT22;23057;48.554;14.454;2023-05-07T13:31:19;16.90;99.90
41939;DHT22;23057;48.554;14.454;2023-05-07T13:33:51;16.80;99.90
41939;DHT22;23057;48.554;14.454;2023-05-07T13:36:22;16.60;99.90
41939;DHT22;23057;48.554;14.454;2023-05-07T13:38:53;16.40;99.90
41939;DHT22;23057;48.554;14.454;2023-05-07T13:41:24;16.40;99.90
41939;DHT22;23057;48.554;14.454;2023-05-07T13:43:55;16.10;99.90
41939;DHT22;23057;48.554;14.454;2023-05-07T13:46:26;16.10;99.90
41939;DHT22;23057;48.554;14.454;2023-05-07T13:48:57;16.10;99.90
41939;DHT22;23057;48.554;14.454;2023-05-07T13:51:27;16.30;99.90
41939;DHT22;23057;48.554;14.454;2023-05-07T13:53:58;15.90;99.90
41939;DHT22;23057;48.554;14.454;2023-05-07T13:56:29;15.80;99.90
41939;DHT22;23057;48.554;14.454;2023-05-07T13:59:02;15.70;99.90
41939;DHT22;23057;48.554;14.454;2023-05-07T14:01:33;15.90;99.90
41939;DHT22;23057;48.554;14.454;2023-05-07T14:04:04;15.90;99.90
41939;DHT22;23057;48.554;14.454;2023-05-07T14:06:34;15.80;99.90
41939;DHT22;23057;48.554;14.454;2023-05-07T14:09:05;15.90;99.90
41939;DHT22;23057;48.554;14.454;2023-05-07T14:11:36;15.90;99.90
41939;DHT22;23057;48.554;14.454;2023-05-07T14:14:06;15.70;99.90
41939;DHT22;23057;48.554;14.454;2023-05-07T14:16:37;15.70;99.90
41939;DHT22;23057;48.554;14.454;2023-05-07T14:19:08;16.00;99.90
41939;DHT22;23057;48.554;14.454;2023-05-07T14:21:39;16.30;99.90
41939;DHT22;23057;48.554;14.454;2023-05-07T14:24:10;16.60;99.90
41939;DHT22;23057;48.554;14.454;2023-05-07T14:26:40;16.60;99.90
41939;DHT22;23057;48.554;14.454;2023-05-07T14:29:11;16.30;99.90
41939;DHT22;23057;48.554;14.454;2023-05-07T14:31:42;16.20;99.90
41939;DHT22;23057;48.554;14.454;2023-05-07T14:34:13;16.50;99.90
41939;DHT22;23057;48.554;14.454;2023-05-07T14:36:43;16.50;99.90
41939;DHT22;23057;48.554;14.454;2023-05-07T14:39:14;16.50;99.90
41939;DHT22;23057;48.554;14.454;2023-05-07T14:41:45;16.40;97.80
41939;DHT22;23057;48.554;14.454;2023-05-07T14:44:16;16.40;99.90
41939;DHT22;23057;48.554;14.454;2023-05-07T14:46:46;16.50;99.90
41939;DHT22;23057;48.554;14.454;2023-05-07T14:49:17;16.40;99.90
41939;DHT22;23057;48.554;14.454;2023-05-07T14:51:48;16.40;99.90
41939;DHT22;23057;48.554;14.454;2023-05-07T14:54:19;16.20;95.30
41939;DHT22;23057;48.554;14.454;2023-05-07T14:56:50;16.30;99.90
41939;DHT22;23057;48.554;14.454;2023-05-07T14:59:21;16.30;96.00
41939;DHT22;23057;48.554;14.454;2023-05-07T15:01:52;16.30;95.00
41939;DHT22;23057;48.554;14.454;2023-05-07T15:04:23;16.50;99.90
41939;DHT22;23057;48.554;14.454;2023-05-07T15:06:55;16.40;97.60
41939;DHT22;23057;48.554;14.454;2023-05-07T15:09:26;16.20;93.20
41939;DHT22;23057;48.554;14.454;2023-05-07T15:11:57;16.30;99.90
41939;DHT22;23057;48.554;14.454;2023-05-07T15:14:27;16.40;99.90
41939;DHT22;23057;48.554;14.454;2023-05-07T15:16:58;16.20;98.30
41939;DHT22;23057;48.554;14.454;2023-05-07T15:19:29;16.30;99.90
41939;DHT22;23057;48.554;14.454;2023-05-07T15:22:00;16.30;97.20
41939;DHT22;23057;48.554;14.454;2023-05-07T15:24:34;16.30;94.00
41939;DHT22;23057;48.554;14.454;2023-05-07T15:27:05;16.20;99.90
41939;DHT22;23057;48.554;14.454;2023-05-07T15:29:36;16.30;94.40
41939;DHT22;23057;48.554;14.454;2023-05-07T15:32:07;16.20;96.30
41939;DHT22;23057;48.554;14.454;2023-05-07T15:34:38;16.20;95.10
41939;DHT22;23057;48.554;14.454;2023-05-07T15:37:08;16.20;99.90
41939;DHT22;23057;48.554;14.454;2023-05-07T15:39:40;16.20;99.90
41939;DHT22;23057;48.554;14.454;2023-05-07T15:42:10;16.00;94.00
41939;DHT22;23057;48.554;14.454;2023-05-07T15:44:41;15.90;99.60
41939;DHT22;23057;48.554;14.454;2023-05-07T15:47:12;15.80;99.90
41939;DHT22;23057;48.554;14.454;2023-05-07T15:49:44;15.80;99.90
41939;DHT22;23057;48.554;14.454;2023-05-07T15:52:15;15.80;99.90
41939;DHT22;23057;48.554;14.454;2023-05-07T15:54:46;15.80;99.90
41939;DHT22;23057;48.554;14.454;2023-05-07T15:57:17;15.80;99.90
41939;DHT22;23057;48.554;14.454;2023-05-07T15:59:48;15.80;99.90
41939;DHT22;23057;48.554;14.454;2023-05-07T16:02:19;15.80;99.90
41939;DHT22;23057;48.554;14.454;2023-05-07T16:04:50;15.90;99.90
41939;DHT22;23057;48.554;14.454;2023-05-07T16:07:21;15.80;99.90